Time;durP1;ratioP1;P1;durP2;ratioP2;P2;SDS_P1;SDS_P2;PMS_P1;PMS_P2;Temp;Humidity;BMP_temperature;BMP_pressure;BME280_temperature;BME280_humidity;BME280_pressure;Samples;Min_cycle;Max_cycle;Signal;HPM_P1;HPM_P2
2021/01/11 00:02:14;;;;;;;1.70;0.20;;;-0.40;99.90;;;;;;5070789;28;20271;-59
2021/01/11 00:04:40;;;;;;;1.90;0.60;;;-0.30;99.90;;;;;;5071527;28;20189;-59
2021/01/11 00:07:09;;;;;;;1.70;0.20;;;-0.30;99.90;;;;;;5071305;28;20216;-59
2021/01/11 00:09:35;;;;;;;1.70;0.20;;;-0.30;99.90;;;;;;5068369;28;20260;-59
2021/01/11 00:12:00;;;;;;;1.77;0.30;;;-0.20;99.90;;;;;;5068860;28;20272;-59
2021/01/11 00:14:26;;;;;;;1.70;0.20;;;-0.30;99.90;;;;;;5071755;28;20177;-59
2021/01/11 00:16:51;;;;;;;1.70;0.20;;;-0.40;99.90;;;;;;5071935;28;20561;-59
2021/01/11 00:19:17;;;;;;;1.70;0.20;;;-0.40;99.90;;;;;;5067193;28;20204;-59
2021/01/11 00:21:46;;;;;;;1.70;0.20;;;-0.30;99.90;;;;;;5071298;28;20251;-59
2021/01/11 00:24:12;;;;;;;1.80;0.40;;;-0.40;99.90;;;;;;5071750;28;21047;-59
2021/01/11 00:26:37;;;;;;;1.70;0.20;;;-0.40;99.90;;;;;;5068536;28;20220;-59
2021/01/11 00:29:03;;;;;;;1.70;0.20;;;-0.40;99.90;;;;;;5072020;28;20192;-59
2021/01/11 00:31:28;;;;;;;1.70;0.20;;;-0.30;99.90;;;;;;5069782;28;20183;-59
2021/01/11 00:33:54;;;;;;;1.80;0.50;;;-0.30;99.90;;;;;;5064937;28;20235;-59
2021/01/11 00:36:20;;;;;;;2.83;0.63;;;-0.40;99.90;;;;;;5071070;28;20273;-59
2021/01/11 00:38:46;;;;;;;1.70;0.20;;;-0.50;99.90;;;;;;5070810;28;20235;-59
2021/01/11 00:41:19;;;;;;;1.70;0.20;;;-0.50;99.90;;;;;;5070449;28;20184;-59
2021/01/11 00:43:45;;;;;;;1.70;0.20;;;-0.40;99.90;;;;;;5068154;28;20644;-60
2021/01/11 00:46:19;;;;;;;1.70;0.20;;;-0.50;99.90;;;;;;5070081;28;20205;-59
2021/01/11 00:48:44;;;;;;;1.70;0.20;;;-0.30;99.90;;;;;;5066793;28;20550;-59
2021/01/11 00:51:10;;;;;;;1.70;0.20;;;-0.40;99.90;;;;;;5071431;28;20622;-59
2021/01/11 00:53:35;;;;;;;1.70;0.20;;;-0.50;99.90;;;;;;5071237;28;20203;-59
2021/01/11 00:56:01;;;;;;;1.70;0.30;;;-0.80;99.90;;;;;;5069615;28;20559;-59
2021/01/11 00:58:27;;;;;;;1.70;0.20;;;-0.40;99.90;;;;;;5073262;28;20211;-59
2021/01/11 01:00:52;;;;;;;1.70;0.20;;;-0.40;99.90;;;;;;5068282;28;20543;-59
2021/01/11 01:03:17;;;;;;;1.70;0.20;;;-0.40;99.90;;;;;;5069505;28;20184;-59
2021/01/11 01:05:43;;;;;;;1.80;0.20;;;-0.40;99.90;;;;;;5071188;28;20281;-59
2021/01/11 01:08:08;;;;;;;1.70;0.20;;;-0.40;99.90;;;;;;5070107;28;20311;-59
2021/01/11 01:10:34;;;;;;;1.70;0.20;;;-0.50;99.90;;;;;;5072596;28;20184;-59
2021/01/11 01:13:00;;;;;;;1.70;0.20;;;-0.50;99.90;;;;;;5071351;28;20220;-59
2021/01/11 01:15:25;;;;;;;1.90;0.83;;;-0.50;99.90;;;;;;5070212;28;20246;-59
2021/01/11 01:17:51;;;;;;;1.70;0.20;;;-0.60;99.90;;;;;;5068490;28;20209;-59
2021/01/11 01:20:16;;;;;;;1.70;0.20;;;-0.60;99.90;;;;;;5075533;28;20206;-59
2021/01/11 01:22:50;;;;;;;1.70;0.23;;;-0.60;99.90;;;;;;5072107;28;20185;-58
2021/01/11 01:25:16;;;;;;;3.25;1.75;;;-0.60;99.90;;;;;;5073600;28;20236;-59
2021/01/11 01:27:42;;;;;;;1.70;0.20;;;-0.70;99.90;;;;;;5073690;28;20195;-59
2021/01/11 01:30:12;;;;;;;1.70;0.30;;;-0.70;99.90;;;;;;5071322;28;20428;-61
2021/01/11 01:32:39;;;;;;;1.70;0.20;;;-1.10;99.90;;;;;;5074670;28;20180;-59
2021/01/11 01:35:05;;;;;;;1.70;0.20;;;-0.60;99.90;;;;;;5071875;28;20330;-59
2021/01/11 01:37:30;;;;;;;1.70;0.20;;;-0.70;99.90;;;;;;5073919;28;20184;-59
2021/01/11 01:39:56;;;;;;;1.70;0.20;;;-0.70;99.90;;;;;;5076411;28;20231;-59
2021/01/11 01:42:21;;;;;;;1.70;0.20;;;-0.70;99.90;;;;;;5072196;28;20184;-59
2021/01/11 01:44:47;;;;;;;1.80;0.20;;;-0.60;99.90;;;;;;5074662;28;20520;-59
2021/01/11 01:47:13;;;;;;;1.70;0.20;;;-0.60;99.90;;;;;;5076511;28;20203;-59
2021/01/11 01:49:39;;;;;;;1.70;0.20;;;-0.70;99.90;;;;;;5067014;28;20575;-59
2021/01/11 01:52:07;;;;;;;1.70;0.20;;;-0.70;99.90;;;;;;5074688;28;20437;-59
2021/01/11 01:54:34;;;;;;;1.70;0.20;;;-0.60;99.90;;;;;;5073837;28;20188;-59
2021/01/11 01:57:00;;;;;;;1.70;0.20;;;-0.60;99.90;;;;;;5073448;28;20210;-59
2021/01/11 01:59:27;;;;;;;1.70;0.20;;;-0.50;99.90;;;;;;5084303;28;20503;-59
2021/01/11 02:01:54;;;;;;;1.70;0.20;;;-0.60;99.90;;;;;;5086514;28;20185;-59
2021/01/11 02:04:20;;;;;;;1.70;0.20;;;-0.60;99.90;;;;;;5083631;28;20260;-59
2021/01/11 02:06:56;;;;;;;1.70;0.20;;;-0.60;99.90;;;;;;5082807;28;20217;-59
2021/01/11 02:10:01;;;;;;;1.70;0.20;;;-0.50;99.90;;;;;;5084860;28;20220;-59
2021/01/11 02:12:45;;;;;;;1.70;0.20;;;-0.40;99.90;;;;;;5049886;28;20192;-59
2021/01/11 02:18:36;;;;;;;1.70;0.20;;;-0.80;99.90;;;;;;5085427;28;20220;-60
2021/01/11 02:21:28;;;;;;;1.70;0.20;;;-0.60;99.90;;;;;;5075351;28;20187;-59
2021/01/11 02:24:28;;;;;;;1.73;0.30;;;-0.70;99.90;;;;;;5033619;28;20223;-59
2021/01/11 02:27:24;;;;;;;1.70;0.20;;;-0.70;99.90;;;;;;5070212;28;20228;-59
2021/01/11 02:30:00;;;;;;;1.70;0.20;;;-0.80;99.90;;;;;;5074093;28;20180;-59
2021/01/11 02:32:28;;;;;;;2.13;1.58;;;-0.80;99.90;;;;;;5073525;28;20180;-58
2021/01/11 02:34:56;;;;;;;1.70;0.20;;;-0.80;99.90;;;;;;5070299;28;20189;-59
2021/01/11 02:37:24;;;;;;;1.70;0.20;;;-0.80;99.90;;;;;;5072724;28;20185;-59
2021/01/11 02:39:50;;;;;;;3.10;1.30;;;-0.60;99.90;;;;;;5073583;28;20184;-59
2021/01/11 02:42:16;;;;;;;1.70;0.20;;;-0.70;99.90;;;;;;5069582;28;20193;-59
2021/01/11 02:44:41;;;;;;;1.70;0.20;;;-0.80;99.90;;;;;;5073346;28;20217;-59
2021/01/11 02:47:07;;;;;;;2.13;1.50;;;-1.10;99.90;;;;;;5073600;28;20197;-59
2021/01/11 02:49:39;;;;;;;1.70;0.30;;;-0.80;99.90;;;;;;5072875;28;20185;-59
2021/01/11 02:52:19;;;;;;;1.70;0.20;;;-1.00;99.90;;;;;;5071466;28;20192;-59
2021/01/11 02:54:57;;;;;;;1.70;0.20;;;-0.90;99.90;;;;;;5071553;28;20188;-59
2021/01/11 02:57:35;;;;;;;1.73;0.20;;;-0.90;99.90;;;;;;5066959;28;20584;-59
2021/01/11 03:00:05;;;;;;;2.42;1.40;;;-0.70;99.90;;;;;;5071608;28;20254;-60
2021/01/11 03:02:33;;;;;;;1.73;0.20;;;-0.90;99.90;;;;;;5072439;28;20263;-59
2021/01/11 03:05:00;;;;;;;1.70;0.20;;;-1.10;99.90;;;;;;5071387;28;20267;-59
2021/01/11 03:07:25;;;;;;;1.70;0.20;;;-0.90;99.90;;;;;;5073392;28;20239;-60
2021/01/11 03:09:51;;;;;;;1.70;0.20;;;-0.80;99.90;;;;;;5058421;28;20220;-59
2021/01/11 03:12:16;;;;;;;1.70;0.20;;;-0.90;99.90;;;;;;5069099;28;20218;-60
2021/01/11 03:14:42;;;;;;;2.13;0.77;;;-0.90;99.90;;;;;;5072172;28;20184;-59
2021/01/11 03:17:07;;;;;;;1.70;0.20;;;-1.00;99.90;;;;;;5071962;28;20232;-59
2021/01/11 03:19:34;;;;;;;1.70;0.20;;;-1.20;99.90;;;;;;5068213;28;20220;-59
2021/01/11 03:21:59;;;;;;;1.70;0.20;;;-1.00;99.90;;;;;;5069545;28;20708;-60
2021/01/11 03:24:25;;;;;;;1.70;0.23;;;-0.90;99.90;;;;;;5070366;28;20267;-59
2021/01/11 03:26:51;;;;;;;1.70;0.30;;;-1.10;99.90;;;;;;5069670;28;20455;-59
2021/01/11 03:29:17;;;;;;;1.70;0.20;;;-1.10;99.90;;;;;;5073674;28;20529;-59
2021/01/11 03:31:44;;;;;;;1.70;0.20;;;-1.10;99.90;;;;;;5068504;28;20547;-59
2021/01/11 03:34:10;;;;;;;1.70;0.20;;;-1.30;99.90;;;;;;5072493;28;20188;-59
2021/01/11 03:36:36;;;;;;;1.70;0.20;;;-0.80;99.90;;;;;;5072544;28;20235;-59
2021/01/11 03:39:04;;;;;;;1.70;0.20;;;-1.20;99.90;;;;;;5066613;28;20295;-59
2021/01/11 03:41:29;;;;;;;1.70;0.30;;;-1.00;99.90;;;;;;5071331;28;20185;-59
2021/01/11 03:43:55;;;;;;;2.00;0.77;;;-0.80;99.90;;;;;;5071279;28;20721;-59
2021/01/11 03:46:20;;;;;;;1.70;0.30;;;-1.00;99.90;;;;;;5066940;28;20281;-59
2021/01/11 03:48:46;;;;;;;2.27;1.17;;;-0.80;99.90;;;;;;5072137;28;20223;-59
2021/01/11 03:51:13;;;;;;;1.70;0.20;;;-1.00;99.90;;;;;;5071790;28;20216;-59
2021/01/11 03:53:39;;;;;;;2.20;0.98;;;-1.10;99.90;;;;;;5068731;28;20189;-59
2021/01/11 03:56:06;;;;;;;3.45;1.27;;;-1.10;99.90;;;;;;5072068;28;20224;-59
2021/01/11 03:58:32;;;;;;;1.77;0.30;;;-1.10;99.90;;;;;;5065413;28;20204;-59
2021/01/11 04:00:59;;;;;;;1.70;0.37;;;-1.10;99.90;;;;;;5069058;28;20544;-59
2021/01/11 04:03:25;;;;;;;1.73;0.20;;;-1.30;99.90;;;;;;5071200;28;20196;-59
2021/01/11 04:05:51;;;;;;;1.70;0.20;;;-1.20;99.90;;;;;;5070698;28;20219;-58
2021/01/11 04:08:16;;;;;;;1.97;0.80;;;-1.20;99.90;;;;;;5069010;28;20189;-59
2021/01/11 04:10:42;;;;;;;5.70;3.30;;;-1.30;99.90;;;;;;5073758;28;20571;-60
2021/01/11 04:13:08;;;;;;;3.03;1.03;;;-1.40;99.90;;;;;;5069958;28;20191;-58
2021/01/11 04:15:34;;;;;;;2.40;1.30;;;-1.40;99.90;;;;;;5069253;28;20254;-59
2021/01/11 04:18:00;;;;;;;1.90;0.50;;;-1.30;99.90;;;;;;5072868;28;20295;-59
2021/01/11 04:20:26;;;;;;;4.33;2.73;;;-1.40;99.90;;;;;;5067198;28;20181;-58
2021/01/11 04:22:51;;;;;;;1.70;0.20;;;-1.20;99.90;;;;;;5070054;28;20646;-59
2021/01/11 04:25:17;;;;;;;1.70;0.20;;;-1.30;99.90;;;;;;5071589;28;20212;-59
2021/01/11 04:27:43;;;;;;;7.13;5.30;;;-1.20;99.90;;;;;;5068486;28;20623;-58
2021/01/11 04:30:10;;;;;;;1.90;0.67;;;-1.40;99.90;;;;;;5072907;28;20192;-59
2021/01/11 04:32:36;;;;;;;1.70;0.20;;;-1.40;99.90;;;;;;5070268;28;20656;-59
2021/01/11 04:35:03;;;;;;;1.70;0.20;;;-1.30;99.90;;;;;;5066946;28;20196;-59
2021/01/11 04:37:29;;;;;;;1.70;0.30;;;-1.30;99.90;;;;;;5067030;28;20699;-59
2021/01/11 04:39:55;;;;;;;7.43;5.97;;;-1.00;99.90;;;;;;5069120;28;20219;-59
2021/01/11 04:42:28;;;;;;;1.70;0.20;;;-1.10;99.90;;;;;;5069405;28;20488;-59
2021/01/11 04:44:55;;;;;;;3.75;1.15;;;-1.30;99.90;;;;;;5071065;28;20206;-59
2021/01/11 04:47:23;;;;;;;1.70;0.20;;;-1.20;99.90;;;;;;5071239;28;20188;-59
2021/01/11 04:49:52;;;;;;;1.70;0.20;;;-1.30;99.90;;;;;;5065622;28;20185;-59
2021/01/11 04:52:18;;;;;;;5.80;2.28;;;-1.10;99.90;;;;;;5071431;28;20192;-59
2021/01/11 04:54:50;;;;;;;1.80;0.60;;;-1.00;99.90;;;;;;5068368;28;20266;-59
2021/01/11 04:57:17;;;;;;;1.70;0.20;;;-1.30;99.90;;;;;;5067230;28;20825;-59
2021/01/11 04:59:49;;;;;;;1.80;0.45;;;-1.30;99.90;;;;;;5070544;28;20872;-59
2021/01/11 05:02:21;;;;;;;1.70;0.20;;;-1.20;99.90;;;;;;5069782;28;20196;-60
2021/01/11 05:04:47;;;;;;;1.70;0.20;;;-1.20;99.90;;;;;;5067217;28;20190;-59
2021/01/11 05:07:16;;;;;;;7.43;5.22;;;-1.20;99.90;;;;;;5072504;28;20209;-60
2021/01/11 05:09:44;;;;;;;2.70;1.17;;;-1.00;99.90;;;;;;5069129;28;20199;-59
2021/01/11 05:12:12;;;;;;;1.70;0.20;;;-1.10;99.90;;;;;;5068580;28;20185;-59
2021/01/11 05:14:38;;;;;;;4.60;2.70;;;-1.00;99.90;;;;;;5072541;28;20189;-59
2021/01/11 05:17:04;;;;;;;2.20;0.50;;;-1.10;99.90;;;;;;5068081;28;20217;-59
2021/01/11 05:19:30;;;;;;;2.60;1.75;;;-1.20;99.90;;;;;;5067890;28;20262;-59
2021/01/11 05:21:55;;;;;;;1.90;0.80;;;-1.30;99.90;;;;;;5074083;28;20193;-59
2021/01/11 05:24:35;;;;;;;2.90;1.27;;;-1.30;99.90;;;;;;5068154;28;20187;-59
2021/01/11 05:27:07;;;;;;;1.70;0.20;;;-1.40;99.90;;;;;;5069940;28;20211;-59
2021/01/11 05:29:34;;;;;;;3.35;2.15;;;-1.30;99.90;;;;;;5072408;28;20180;-59
2021/01/11 05:32:02;;;;;;;6.35;3.70;;;-1.20;99.90;;;;;;5070338;28;20208;-59
2021/01/11 05:34:44;;;;;;;1.90;0.70;;;-1.30;99.90;;;;;;5065173;28;20187;-59
2021/01/11 05:37:09;;;;;;;3.55;1.15;;;-1.40;99.90;;;;;;5064878;28;20209;-59
2021/01/11 05:39:35;;;;;;;2.00;1.03;;;-1.30;99.90;;;;;;5070560;28;20213;-59
2021/01/11 05:42:00;;;;;;;1.70;0.20;;;-1.20;99.90;;;;;;5070765;28;20208;-59
2021/01/11 05:44:26;;;;;;;1.70;0.20;;;-1.40;99.90;;;;;;5071325;28;20259;-60
2021/01/11 05:46:51;;;;;;;5.40;3.63;;;-1.30;99.90;;;;;;5069209;28;20711;-59
2021/01/11 05:49:17;;;;;;;2.10;0.53;;;-1.30;99.90;;;;;;5071350;28;20180;-60
2021/01/11 05:51:42;;;;;;;1.70;0.20;;;-1.30;99.90;;;;;;5064281;28;20200;-59
2021/01/11 05:54:24;;;;;;;1.70;0.20;;;-1.30;99.90;;;;;;5068757;28;20192;-59
2021/01/11 05:56:55;;;;;;;3.08;1.75;;;-1.10;99.90;;;;;;5070919;28;20575;-60
2021/01/11 05:59:21;;;;;;;2.35;1.60;;;-1.20;99.90;;;;;;5070773;28;20230;-59
2021/01/11 06:01:47;;;;;;;1.70;0.20;;;-1.20;99.90;;;;;;5056056;28;20188;-59
2021/01/11 06:04:12;;;;;;;2.00;1.10;;;-1.30;99.90;;;;;;5072143;28;20184;-59
2021/01/11 06:06:39;;;;;;;2.40;1.20;;;-1.20;99.90;;;;;;5073107;28;20204;-59
2021/01/11 06:09:06;;;;;;;1.75;0.30;;;-1.30;99.90;;;;;;5072090;28;20216;-60
2021/01/11 06:11:37;;;;;;;1.70;0.20;;;-1.10;99.90;;;;;;5070553;28;20586;-59
2021/01/11 06:14:05;;;;;;;1.80;0.40;;;-1.10;99.90;;;;;;5075768;28;20235;-60
2021/01/11 06:16:32;;;;;;;3.70;2.40;;;-1.30;99.90;;;;;;5092080;28;20250;-60
2021/01/11 06:18:58;;;;;;;1.70;0.20;;;-1.10;99.90;;;;;;5096184;28;20241;-65
2021/01/11 06:21:23;;;;;;;3.10;1.35;;;-1.20;99.90;;;;;;5092624;28;20181;-60
2021/01/11 06:24:13;;;;;;;2.47;1.23;;;-1.20;99.90;;;;;;5088359;28;20204;-59
2021/01/11 06:26:38;;;;;;;1.90;0.70;;;-1.20;99.90;;;;;;5085614;28;20229;-59
2021/01/11 06:29:27;;;;;;;3.10;2.30;;;-1.10;99.90;;;;;;5076222;28;20219;-59
2021/01/11 06:31:56;;;;;;;1.73;0.20;;;-1.20;99.90;;;;;;5074689;28;20187;-60
2021/01/11 06:34:41;;;;;;;1.70;0.20;;;-1.30;99.90;;;;;;5074895;28;20189;-59
2021/01/11 06:37:24;;;;;;;2.15;0.82;;;-1.10;99.90;;;;;;5074018;28;20305;-59
2021/01/11 06:39:50;;;;;;;1.70;0.30;;;-1.10;99.90;;;;;;5072172;28;20213;-60
2021/01/11 06:42:16;;;;;;;1.70;0.20;;;-1.30;99.90;;;;;;5075166;28;20272;-59
2021/01/11 06:44:47;;;;;;;1.73;0.20;;;-1.00;99.90;;;;;;5073857;28;20238;-59
2021/01/11 06:47:29;;;;;;;5.60;3.03;;;-1.10;99.90;;;;;;5070083;28;20298;-59
2021/01/11 06:50:04;;;;;;;1.80;0.43;;;-1.20;99.90;;;;;;5069553;28;20664;-59
2021/01/11 06:52:36;;;;;;;12.55;5.85;;;-1.10;99.90;;;;;;5074790;28;20191;-59
2021/01/11 06:55:10;;;;;;;1.90;0.60;;;-1.30;99.90;;;;;;5067023;28;20197;-59
2021/01/11 06:57:37;;;;;;;1.73;0.20;;;-1.30;99.90;;;;;;5074056;28;20184;-59
2021/01/11 07:00:07;;;;;;;1.70;0.20;;;-1.30;99.90;;;;;;5073631;28;20535;-59
2021/01/11 07:02:40;;;;;;;4.10;2.35;;;-1.20;99.90;;;;;;5070986;28;20535;-58
2021/01/11 07:05:06;;;;;;;1.90;0.55;;;-1.00;99.90;;;;;;5070348;28;20193;-58
2021/01/11 07:07:33;;;;;;;1.70;0.20;;;-1.10;99.90;;;;;;5074426;28;20176;-57
2021/01/11 07:10:01;;;;;;;1.70;0.20;;;-1.30;99.90;;;;;;5071135;28;20188;-57
2021/01/11 07:12:27;;;;;;;1.90;0.68;;;-1.00;99.90;;;;;;5065164;28;20186;-57
2021/01/11 07:15:01;;;;;;;2.00;1.20;;;-1.10;99.90;;;;;;5074110;28;20539;-58
2021/01/11 07:17:41;;;;;;;2.50;2.15;;;-1.00;99.90;;;;;;5073923;28;20188;-58
2021/01/11 07:20:12;;;;;;;1.80;0.45;;;-1.10;99.90;;;;;;5076668;28;20180;-58
2021/01/11 07:22:42;;;;;;;2.63;1.75;;;-1.20;99.90;;;;;;5077016;28;20173;-57
2021/01/11 07:25:18;;;;;;;1.70;0.20;;;-1.20;99.90;;;;;;5076741;28;20185;-57
2021/01/11 07:27:44;;;;;;;1.70;0.20;;;-1.30;99.90;;;;;;5075690;28;20641;-57
2021/01/11 07:30:10;;;;;;;1.80;0.40;;;-1.30;99.90;;;;;;5075299;28;20188;-57
2021/01/11 07:32:36;;;;;;;3.08;1.40;;;-1.30;99.90;;;;;;5071322;28;20292;-57
2021/01/11 07:35:02;;;;;;;1.80;0.53;;;-1.20;99.90;;;;;;5072114;28;20675;-57
2021/01/11 07:37:28;;;;;;;1.70;0.20;;;-1.20;99.90;;;;;;5071464;28;20188;-57
2021/01/11 07:39:54;;;;;;;1.70;0.20;;;-1.20;99.90;;;;;;5078713;28;20199;-57
2021/01/11 07:42:20;;;;;;;1.70;0.20;;;-1.10;99.90;;;;;;5082614;28;20208;-60
2021/01/11 07:44:46;;;;;;;2.13;0.55;;;-1.20;99.90;;;;;;5081241;28;20202;-58
2021/01/11 07:47:16;;;;;;;1.90;0.40;;;-1.20;99.90;;;;;;5080593;28;20213;-58
2021/01/11 07:49:59;;;;;;;6.10;3.40;;;-1.30;99.90;;;;;;5085712;28;20464;-57
2021/01/11 07:52:25;;;;;;;1.77;0.30;;;-1.10;99.90;;;;;;5088736;28;20184;-57
2021/01/11 07:55:02;;;;;;;1.70;0.30;;;-1.20;99.90;;;;;;5088786;28;20207;-58
2021/01/11 07:57:30;;;;;;;6.97;2.28;;;-1.20;99.90;;;;;;5093360;28;20177;-59
2021/01/11 08:00:09;;;;;;;8.93;5.43;;;-1.20;99.90;;;;;;5077498;28;20715;-57
2021/01/11 08:02:35;;;;;;;3.78;1.80;;;-1.10;99.90;;;;;;5083584;28;20183;-58
2021/01/11 08:05:01;;;;;;;1.80;0.47;;;-1.20;99.90;;;;;;5082209;28;20176;-58
2021/01/11 08:07:32;;;;;;;1.80;0.47;;;-1.20;99.90;;;;;;5081652;28;20445;-57
2021/01/11 08:09:59;;;;;;;1.70;0.20;;;-1.30;99.90;;;;;;5082503;28;20712;-57
2021/01/11 08:12:29;;;;;;;1.70;0.20;;;-1.10;99.90;;;;;;5080307;28;20237;-57
2021/01/11 08:15:04;;;;;;;1.70;0.20;;;-1.20;99.90;;;;;;5077128;28;20271;-58
2021/01/11 08:17:32;;;;;;;4.28;2.42;;;-1.10;99.90;;;;;;5078759;28;20244;-57
2021/01/11 08:19:59;;;;;;;2.35;0.73;;;-1.30;99.90;;;;;;5069489;28;20212;-58
2021/01/11 08:22:28;;;;;;;4.43;2.30;;;-1.10;99.90;;;;;;5075654;28;20723;-57
2021/01/11 08:24:56;;;;;;;5.15;3.30;;;-1.40;99.90;;;;;;5075420;28;20191;-59
2021/01/11 08:27:30;;;;;;;2.67;0.73;;;-1.40;99.90;;;;;;5070527;28;20211;-58
2021/01/11 08:30:01;;;;;;;4.18;2.67;;;-1.40;99.90;;;;;;5069157;28;20207;-58
2021/01/11 08:32:27;;;;;;;6.32;3.50;;;-1.20;99.90;;;;;;5072043;28;20235;-57
2021/01/11 08:34:52;;;;;;;5.93;3.60;;;-1.30;99.90;;;;;;5072415;28;20208;-58
2021/01/11 08:37:27;;;;;;;2.63;0.63;;;-1.40;99.90;;;;;;5068368;28;20219;-57
2021/01/11 08:39:57;;;;;;;2.80;1.85;;;-1.30;99.90;;;;;;5067752;28;20187;-57
2021/01/11 08:42:25;;;;;;;1.92;0.45;;;-1.40;99.90;;;;;;5078019;28;20207;-58
2021/01/11 08:44:50;;;;;;;1.70;0.20;;;-1.30;99.90;;;;;;5069744;28;20195;-58
2021/01/11 08:47:24;;;;;;;4.87;2.23;;;-1.40;99.90;;;;;;5067239;28;20204;-58
2021/01/11 08:50:02;;;;;;;3.78;2.25;;;-1.30;99.90;;;;;;5068944;28;20210;-57
2021/01/11 08:52:32;;;;;;;1.73;0.20;;;-1.10;99.90;;;;;;5075030;28;20233;-58
2021/01/11 08:55:11;;;;;;;1.70;0.30;;;-1.20;99.90;;;;;;5068318;28;20169;-58
2021/01/11 08:57:38;;;;;;;7.75;5.25;;;-1.10;99.90;;;;;;5077359;28;20687;-57
2021/01/11 09:00:11;;;;;;;3.60;0.82;;;-1.20;99.90;;;;;;5065516;28;20195;-57
2021/01/11 09:02:44;;;;;;;1.98;0.52;;;-1.50;99.90;;;;;;5065358;28;20260;-57
2021/01/11 09:05:17;;;;;;;1.75;0.30;;;-1.40;99.90;;;;;;5073446;28;20188;-58
2021/01/11 09:07:44;;;;;;;5.25;2.50;;;-1.30;99.90;;;;;;5068613;28;20199;-58
2021/01/11 09:10:31;;;;;;;1.95;0.95;;;-1.30;99.90;;;;;;5065158;28;20529;-58
2021/01/11 09:13:16;;;;;;;4.82;3.85;;;-1.30;99.90;;;;;;5070374;28;20208;-57
2021/01/11 09:15:42;;;;;;;3.50;2.95;;;-1.00;99.90;;;;;;5072096;28;20200;-58
2021/01/11 09:18:10;;;;;;;5.80;3.30;;;-1.30;99.90;;;;;;5069353;28;20187;-57
2021/01/11 09:20:45;;;;;;;3.20;2.25;;;-1.20;99.90;;;;;;5070963;28;20203;-58
2021/01/11 09:23:12;;;;;;;2.20;1.27;;;-1.10;99.90;;;;;;5078809;28;20183;-58
2021/01/11 09:25:38;;;;;;;1.92;0.40;;;-1.00;99.90;;;;;;5068586;28;20208;-58
2021/01/11 09:28:08;;;;;;;9.90;6.07;;;-1.00;99.90;;;;;;5059555;28;20227;-58
2021/01/11 09:30:35;;;;;;;1.70;0.20;;;-1.20;99.90;;;;;;5071290;28;20185;-57
2021/01/11 09:33:01;;;;;;;1.70;0.20;;;-1.00;99.90;;;;;;5068117;28;20188;-58
2021/01/11 09:35:28;;;;;;;1.73;0.22;;;-0.80;99.90;;;;;;5061692;28;20263;-58
2021/01/11 09:37:54;;;;;;;1.70;0.20;;;-0.80;99.90;;;;;;5066772;28;20188;-58
2021/01/11 09:40:21;;;;;;;1.70;0.20;;;-0.80;99.90;;;;;;5073266;28;20180;-58
2021/01/11 09:42:48;;;;;;;2.38;0.85;;;-0.70;99.90;;;;;;5076911;28;20181;-58
2021/01/11 09:45:14;;;;;;;2.17;1.50;;;-0.50;99.90;;;;;;5070155;28;20180;-58
2021/01/11 09:47:43;;;;;;;2.17;1.05;;;-0.60;99.90;;;;;;5069512;28;20514;-58
2021/01/11 09:50:10;;;;;;;3.25;2.10;;;-0.80;99.90;;;;;;5082324;28;20201;-58
2021/01/11 09:52:36;;;;;;;1.70;0.20;;;-0.50;99.90;;;;;;5078701;28;20187;-58
2021/01/11 09:55:03;;;;;;;3.40;1.17;;;-0.50;99.90;;;;;;5072390;28;20173;-58
2021/01/11 09:57:34;;;;;;;3.72;0.88;;;-0.40;99.90;;;;;;5074483;28;20427;-59
2021/01/11 10:00:00;;;;;;;9.90;8.95;;;-0.40;99.90;;;;;;5071734;28;20242;-58
2021/01/11 10:02:25;;;;;;;10.57;7.43;;;-0.40;99.90;;;;;;5078905;28;20644;-58
2021/01/11 10:04:50;;;;;;;1.70;0.20;;;-0.40;99.90;;;;;;5079091;28;20241;-58
2021/01/11 10:07:16;;;;;;;3.67;2.30;;;-0.50;99.90;;;;;;5071932;28;20212;-58
2021/01/11 10:09:42;;;;;;;1.90;0.63;;;-0.30;99.90;;;;;;5074826;28;20267;-59
2021/01/11 10:12:07;;;;;;;7.00;4.43;;;-0.20;99.90;;;;;;5075951;28;20176;-59
2021/01/11 10:14:33;;;;;;;18.53;11.87;;;-0.40;99.90;;;;;;5070562;28;20192;-58
2021/01/11 10:16:59;;;;;;;11.80;5.40;;;-0.50;99.90;;;;;;5075474;28;20208;-60
2021/01/11 10:19:29;;;;;;;11.13;8.30;;;-0.50;99.90;;;;;;5085450;28;20601;-58
2021/01/11 10:21:56;;;;;;;2.00;0.82;;;-0.40;99.90;;;;;;5089761;28;20196;-66
2021/01/11 10:24:23;;;;;;;2.90;1.65;;;-0.40;99.90;;;;;;5094848;28;20246;-59
2021/01/11 10:26:49;;;;;;;11.82;7.60;;;-0.30;99.90;;;;;;5092612;28;20236;-57
2021/01/11 10:29:16;;;;;;;6.90;4.55;;;-0.20;99.90;;;;;;5092484;28;20215;-61
2021/01/11 10:31:44;;;;;;;3.65;1.40;;;-0.20;99.90;;;;;;5084404;28;20180;-59
2021/01/11 10:34:10;;;;;;;1.90;0.77;;;-0.10;99.90;;;;;;5074584;28;20187;-58
2021/01/11 10:36:37;;;;;;;1.70;0.30;;;0.00;99.90;;;;;;5071792;28;20568;-59
2021/01/11 10:39:03;;;;;;;1.70;0.20;;;0.00;99.90;;;;;;5073005;28;20193;-58
2021/01/11 10:41:29;;;;;;;2.70;1.90;;;0.10;99.90;;;;;;5076374;28;20180;-58
2021/01/11 10:43:54;;;;;;;9.80;5.57;;;0.20;99.90;;;;;;5075093;28;20184;-59
2021/01/11 10:46:20;;;;;;;1.73;0.20;;;0.30;99.90;;;;;;5074203;28;20205;-58
2021/01/11 10:48:45;;;;;;;6.60;4.40;;;0.40;99.90;;;;;;5068064;28;20228;-59
2021/01/11 10:51:12;;;;;;;1.70;0.20;;;0.50;99.90;;;;;;5069849;28;20185;-59
2021/01/11 10:53:42;;;;;;;11.32;5.93;;;0.50;99.90;;;;;;5070663;28;20173;-58
2021/01/11 10:56:09;;;;;;;1.70;0.20;;;0.60;99.90;;;;;;5068335;28;20741;-59
2021/01/11 10:58:35;;;;;;;5.82;3.25;;;0.60;99.90;;;;;;5073322;28;20191;-58
2021/01/11 11:01:02;;;;;;;2.00;0.95;;;0.70;99.90;;;;;;5073001;28;20651;-59
2021/01/11 11:03:28;;;;;;;3.45;1.15;;;0.70;99.90;;;;;;5071723;28;20187;-58
2021/01/11 11:05:54;;;;;;;7.73;4.47;;;0.80;99.90;;;;;;5073555;28;20204;-58
2021/01/11 11:08:19;;;;;;;6.30;3.80;;;0.80;99.90;;;;;;5072664;28;20239;-58
2021/01/11 11:10:45;;;;;;;1.80;0.30;;;0.80;99.90;;;;;;5068707;28;20453;-60
2021/01/11 11:13:11;;;;;;;5.03;2.20;;;0.80;99.90;;;;;;5071197;28;20438;-58
2021/01/11 11:15:37;;;;;;;1.80;0.20;;;0.80;99.90;;;;;;5069342;28;20561;-58
2021/01/11 11:18:02;;;;;;;7.83;4.13;;;0.80;99.90;;;;;;5071296;28;20177;-58
2021/01/11 11:20:28;;;;;;;7.20;2.30;;;0.80;99.90;;;;;;5069202;28;20189;-58
2021/01/11 11:22:53;;;;;;;3.43;1.90;;;0.90;99.90;;;;;;5072071;28;20189;-58
2021/01/11 11:25:20;;;;;;;1.70;0.20;;;0.90;99.90;;;;;;5072155;28;20291;-59
2021/01/11 11:27:49;;;;;;;7.18;3.72;;;0.90;99.90;;;;;;5070134;28;20181;-58
2021/01/11 11:30:16;;;;;;;2.10;0.35;;;0.90;99.90;;;;;;5069787;28;20188;-58
2021/01/11 11:32:46;;;;;;;2.55;1.02;;;0.90;99.90;;;;;;5067178;28;23085;-58
2021/01/11 11:35:14;;;;;;;6.82;4.75;;;0.90;99.90;;;;;;5067297;28;20184;-59
2021/01/11 11:37:39;;;;;;;8.90;5.20;;;0.90;99.90;;;;;;5069548;28;20234;-58
2021/01/11 11:40:05;;;;;;;1.77;0.20;;;0.90;99.90;;;;;;5071593;28;20192;-59
2021/01/11 11:42:35;;;;;;;1.75;0.20;;;1.00;99.90;;;;;;5075320;28;20674;-60
2021/01/11 11:45:03;;;;;;;2.22;0.73;;;1.10;99.90;;;;;;5069486;28;20193;-59
2021/01/11 11:47:36;;;;;;;9.77;6.28;;;1.10;99.90;;;;;;5072350;28;20293;-59
2021/01/11 11:50:03;;;;;;;4.03;2.15;;;1.00;99.90;;;;;;5072664;28;20964;-58
2021/01/11 11:52:29;;;;;;;13.00;8.85;;;1.00;99.90;;;;;;5067988;28;20517;-59
2021/01/11 11:54:54;;;;;;;1.70;0.20;;;1.00;99.90;;;;;;5071096;28;20211;-61
2021/01/11 11:57:20;;;;;;;17.60;3.13;;;1.00;99.90;;;;;;5072056;28;20287;-58
2021/01/11 11:59:47;;;;;;;7.77;5.40;;;1.10;99.90;;;;;;5071320;28;20197;-59
2021/01/11 12:02:13;;;;;;;2.15;0.98;;;1.10;99.90;;;;;;5073270;28;20200;-58
2021/01/11 12:04:39;;;;;;;3.73;2.77;;;1.10;99.90;;;;;;5073571;28;20187;-59
2021/01/11 12:07:05;;;;;;;1.80;0.40;;;1.10;99.90;;;;;;5073430;28;20449;-58
2021/01/11 12:09:31;;;;;;;6.43;4.90;;;1.20;99.90;;;;;;5074181;28;20224;-58
2021/01/11 12:11:56;;;;;;;1.70;0.20;;;1.20;99.90;;;;;;5087594;28;20200;-59
2021/01/11 12:14:24;;;;;;;1.70;0.20;;;1.30;99.90;;;;;;5085587;28;20326;-59
2021/01/11 12:16:50;;;;;;;7.25;3.53;;;1.30;99.90;;;;;;5091233;28;20200;-59
2021/01/11 12:19:16;;;;;;;13.25;8.55;;;1.30;99.90;;;;;;5092372;28;20200;-59
2021/01/11 12:21:42;;;;;;;2.25;0.68;;;1.30;99.90;;;;;;5086621;28;20225;-58
2021/01/11 12:24:11;;;;;;;1.87;0.37;;;1.30;99.90;;;;;;5089584;28;20578;-58
2021/01/11 12:26:40;;;;;;;8.85;5.63;;;1.40;99.90;;;;;;5085300;28;20213;-59
2021/01/11 12:29:07;;;;;;;3.00;0.85;;;1.50;99.90;;;;;;5082786;28;20197;-58
2021/01/11 12:31:32;;;;;;;5.35;2.80;;;1.50;99.90;;;;;;5076119;28;20674;-58
2021/01/11 12:33:58;;;;;;;2.53;1.63;;;1.40;99.90;;;;;;5065326;28;20207;-58
2021/01/11 12:36:25;;;;;;;2.93;1.07;;;1.40;99.90;;;;;;5066285;28;20207;-58
2021/01/11 12:38:51;;;;;;;4.68;1.60;;;1.50;99.90;;;;;;5070451;28;20200;-59
2021/01/11 12:41:18;;;;;;;6.68;4.20;;;1.50;99.90;;;;;;5069580;28;20246;-61
2021/01/11 12:43:44;;;;;;;7.57;4.63;;;1.50;99.90;;;;;;5069664;28;20212;-58
2021/01/11 12:46:11;;;;;;;1.70;0.20;;;1.50;99.90;;;;;;5071841;28;20200;-58
2021/01/11 12:48:37;;;;;;;4.00;2.20;;;1.60;99.90;;;;;;5067407;28;20200;-59
2021/01/11 12:51:04;;;;;;;1.70;0.20;;;1.70;99.90;;;;;;5063588;28;20317;-58
2021/01/11 12:53:30;;;;;;;10.43;6.95;;;1.70;99.90;;;;;;5070001;28;20181;-59
2021/01/11 12:55:55;;;;;;;4.13;2.77;;;1.80;99.90;;;;;;5068738;28;20197;-59
2021/01/11 12:58:21;;;;;;;11.20;6.07;;;1.80;99.90;;;;;;5071602;28;20183;-59